Voorthuizen, Netherlands
Current Conditions -  °F | °C
As of 7:55 AM on Friday 31 Oct 2014 (Local Time) from EHDL Reporting Station
Haze Haze  
Wind Chill: 52°   Ceiling: Unl
Heat Index: 52°   Visibility: 5mi
Dew Point: 52°   Wind: 7mph
Humidity: 100%   Direction: 170°S
Pressure: 30.15"   Gusts: NA
Location:  52.19°N, 5.61°E
Report Text: EHDL 310655Z AUTO 17006KT 8000 BR FEW083 11/11 Q1021 BLU
Loading
Personal Weather Stations






























Interactive Weather Map
Tropical Storm Tracking
New forecast layout! Learn more

10-Day Weather Forecast

Advertisements
Track Severe Weather on mobile